»·PEaware :: N188MZ KGJT-KPVU

N188MZ :: KGJT-KPVU

FLIGHT INFORMATION

Flight Status: Arrived
Operator: Privately registered:
United States
More flights under this callsign
Pilot: Anonymous 12234 (12234)
Aircraft: CESSNA 172 SKYHAWK
(C172)
More flights by this aircraft type
Origin: KGJT Walker
United States
Destination: KPVU Provo Mun
United States
More flights between these airports :: More routes between these airports
Route: PUC
File this flight plan on PilotEdge
Remarks:
Altitude:
(Current/Filed)
10,500ft
Speed:
(Current/Filed)
105kts
Departed: 11-Nov-17 05:18 PM
Arrived: 11-Nov-17 07:28 PM
Distance/Time
Traveled:
161nm/2:10
Distance/Time
To Go:
Arrived

Flight Plot

Page will automatically refresh every two minutes.

Flight plan parsing failed; only flown route is shown


Map Options




Map Legend


Flown Route
Filed Route
Departure Airport
Arrival Airport
Navaid (VOR, NDB)
Fix

Horizontal Profiles

Position Reports

Time Latitude Longitude Heading Altitude Ground
Speed
11-Nov-17 17:10 39.119061 -108.521251 114 4861ft 2kts
11-Nov-17 17:11 39.119092 -108.521138 37 4861ft 0kts
11-Nov-17 17:12 39.119092 -108.521138 37 4861ft 0kts
11-Nov-17 17:13 39.119092 -108.521138 37 4861ft 0kts
11-Nov-17 17:14 39.119092 -108.521138 37 4861ft 0kts
11-Nov-17 17:15 39.119516 -108.519737 29 4861ft 0kts
11-Nov-17 17:16 39.119516 -108.519737 29 4861ft 0kts
11-Nov-17 17:17 39.119516 -108.519737 29 4861ft 0kts
11-Nov-17 17:18 39.119516 -108.519737 29 4861ft 0kts
11-Nov-17 17:19 39.119516 -108.519737 29 4861ft 0kts
11-Nov-17 17:20 39.119747 -108.519004 122 4861ft 11kts
11-Nov-17 17:21 39.118241 -108.516350 120 4861ft 0kts
11-Nov-17 17:22 39.118423 -108.514812 11 4861ft 15kts
11-Nov-17 17:23 39.126796 -108.529045 302 5175ft 67kts
11-Nov-17 17:24 39.138369 -108.549110 307 5748ft 73kts
11-Nov-17 17:25 39.151664 -108.569904 308 6330ft 76kts
11-Nov-17 17:26 39.165368 -108.590248 309 6910ft 76kts
11-Nov-17 17:27 39.178254 -108.612298 289 7422ft 79kts
11-Nov-17 17:28 39.185591 -108.639033 288 7927ft 79kts
11-Nov-17 17:29 39.193230 -108.665619 288 8429ft 78kts
11-Nov-17 17:30 39.201063 -108.691661 288 8926ft 77kts
11-Nov-17 17:34 39.119093 -108.521317 127 4861ft 0kts
11-Nov-17 17:35 39.119105 -108.521127 38 4861ft 0kts
11-Nov-17 17:36 39.119122 -108.521108 41 4861ft 0kts
11-Nov-17 17:37 39.119122 -108.521108 41 4861ft 0kts
11-Nov-17 17:38 39.119616 -108.519664 42 4861ft 4kts
11-Nov-17 17:39 39.119624 -108.519655 42 4861ft 0kts
11-Nov-17 17:40 39.119625 -108.519653 43 4861ft 0kts
11-Nov-17 17:41 39.119625 -108.519653 43 4861ft 0kts
11-Nov-17 17:42 39.119626 -108.519653 43 4861ft 0kts
11-Nov-17 17:43 39.119626 -108.519653 43 4861ft 0kts
11-Nov-17 17:44 39.119626 -108.519653 43 4861ft 0kts
11-Nov-17 17:45 39.119626 -108.519653 43 4861ft 0kts
11-Nov-17 17:46 39.119754 -108.519060 121 4861ft 12kts
11-Nov-17 17:47 39.119045 -108.517707 305 4861ft 19kts
11-Nov-17 17:48 39.120671 -108.520283 29 4861ft 0kts
11-Nov-17 17:49 39.122063 -108.520838 305 4861ft 25kts
11-Nov-17 17:50 39.132389 -108.538583 309 5220ft 73kts
11-Nov-17 17:51 39.146598 -108.560728 309 5689ft 83kts
11-Nov-17 17:52 39.160884 -108.582534 309 6281ft 76kts
11-Nov-17 17:53 39.174488 -108.602824 308 6832ft 76kts
11-Nov-17 17:54 39.181026 -108.628709 284 7343ft 78kts
11-Nov-17 17:55 39.186859 -108.656033 284 7851ft 79kts
11-Nov-17 17:56 39.192816 -108.682941 284 8348ft 77kts
11-Nov-17 17:57 39.198772 -108.708905 284 8844ft 74kts
11-Nov-17 17:58 39.204693 -108.733809 284 9339ft 71kts
11-Nov-17 17:59 39.210469 -108.757233 284 9809ft 68kts
11-Nov-17 18:00 39.216658 -108.780842 284 10218ft 70kts
11-Nov-17 18:01 39.221332 -108.806134 279 10506ft 84kts
11-Nov-17 18:02 39.226111 -108.838693 276 10493ft 96kts
11-Nov-17 18:03 39.230255 -108.873520 276 10492ft 99kts
11-Nov-17 18:04 39.234345 -108.908397 276 10491ft 100kts
11-Nov-17 18:05 39.238462 -108.943941 276 10491ft 100kts
11-Nov-17 18:06 39.245579 -108.978901 284 10491ft 101kts
11-Nov-17 18:07 39.253705 -109.013551 283 10509ft 101kts
11-Nov-17 18:08 39.261804 -109.049051 283 10510ft 104kts
11-Nov-17 18:09 39.269998 -109.085226 283 10509ft 105kts
11-Nov-17 18:10 39.278197 -109.121661 283 10509ft 106kts
11-Nov-17 18:11 39.286353 -109.158129 283 10509ft 106kts
11-Nov-17 18:12 39.294525 -109.194876 283 10509ft 106kts
11-Nov-17 18:13 39.302615 -109.231460 283 10509ft 106kts
11-Nov-17 18:14 39.310572 -109.268202 283 10509ft 106kts
11-Nov-17 18:15 39.317977 -109.305141 283 10509ft 106kts
11-Nov-17 18:16 39.324745 -109.342080 283 10509ft 106kts
11-Nov-17 18:17 39.331105 -109.379517 283 10491ft 107kts
11-Nov-17 18:18 39.337400 -109.417027 283 10491ft 106kts
11-Nov-17 18:19 39.343626 -109.454403 283 10491ft 106kts
11-Nov-17 18:20 39.349799 -109.491731 283 10491ft 106kts
11-Nov-17 18:21 39.355944 -109.529149 283 10491ft 106kts
11-Nov-17 18:22 39.362033 -109.566501 283 10491ft 106kts
11-Nov-17 18:23 39.368089 -109.603918 283 10491ft 106kts
11-Nov-17 18:24 39.374108 -109.641377 283 10491ft 106kts
11-Nov-17 18:25 39.379655 -109.676202 282 10492ft 106kts
11-Nov-17 18:26 39.385585 -109.713716 282 10491ft 106kts
11-Nov-17 18:27 39.383593 -109.751827 262 10492ft 107kts
11-Nov-17 18:28 39.378141 -109.790015 262 10491ft 108kts
11-Nov-17 18:29 39.372909 -109.828563 266 10491ft 109kts
11-Nov-17 18:30 39.369643 -109.868064 267 10492ft 111kts
11-Nov-17 18:31 39.366317 -109.907995 267 10491ft 112kts
11-Nov-17 18:32 39.362954 -109.947956 266 10491ft 112kts
11-Nov-17 18:33 39.359533 -109.987191 266 10538ft 109kts
11-Nov-17 18:34 39.356042 -110.026661 266 10537ft 111kts
11-Nov-17 18:35 39.352484 -110.066572 266 10537ft 111kts
11-Nov-17 18:36 39.348908 -110.106259 266 10537ft 112kts
11-Nov-17 18:37 39.345272 -110.146174 266 10537ft 112kts
11-Nov-17 18:38 39.341590 -110.186105 266 10537ft 112kts
11-Nov-17 18:39 39.346162 -110.223130 306 10538ft 107kts
11-Nov-17 18:40 39.362347 -110.255145 306 10539ft 107kts
11-Nov-17 18:41 39.378180 -110.287213 304 10537ft 105kts
11-Nov-17 18:42 39.393628 -110.318864 302 10536ft 103kts
11-Nov-17 18:43 39.408766 -110.350038 300 10536ft 102kts
11-Nov-17 18:44 39.423787 -110.381141 300 10536ft 102kts
11-Nov-17 18:45 39.438825 -110.412262 300 10536ft 102kts
11-Nov-17 18:46 39.453823 -110.443312 300 10536ft 102kts
11-Nov-17 18:47 39.468864 -110.474478 300 10536ft 102kts
11-Nov-17 18:48 39.483823 -110.505502 300 10536ft 102kts
11-Nov-17 18:49 39.498852 -110.536701 300 10536ft 101kts
11-Nov-17 18:50 39.513761 -110.567684 300 10536ft 101kts
11-Nov-17 18:51 39.528758 -110.598879 300 10536ft 101kts
11-Nov-17 18:52 39.543653 -110.629893 300 10536ft 101kts
11-Nov-17 18:53 39.558500 -110.660839 300 10537ft 102kts
11-Nov-17 18:54 39.573466 -110.692063 300 10537ft 102kts
11-Nov-17 18:55 39.588415 -110.723513 299 10537ft 102kts
11-Nov-17 18:56 39.603249 -110.755139 300 10536ft 103kts
11-Nov-17 18:57 39.627322 -110.776404 323 10537ft 106kts
11-Nov-17 18:58 39.648469 -110.793392 323 10538ft 108kts
11-Nov-17 18:59 39.678623 -110.817692 323 10537ft 110kts
11-Nov-17 19:00 39.704585 -110.838735 323 10537ft 110kts
11-Nov-17 19:01 39.726266 -110.856385 323 10537ft 110kts
11-Nov-17 19:02 39.752219 -110.877594 322 10538ft 110kts
11-Nov-17 19:03 39.778341 -110.897309 323 10537ft 107kts
11-Nov-17 19:04 39.802235 -110.926121 290 10538ft 100kts
11-Nov-17 19:05 39.813466 -110.959185 290 10537ft 100kts
11-Nov-17 19:06 39.822838 -110.986914 289 10537ft 100kts
11-Nov-17 19:07 39.835190 -111.019453 292 10541ft 100kts
11-Nov-17 19:08 39.847763 -111.051679 292 10546ft 100kts
11-Nov-17 19:09 39.860347 -111.084096 292 10546ft 100kts
11-Nov-17 19:10 39.872856 -111.116473 292 10546ft 100kts
11-Nov-17 19:11 39.885352 -111.148969 292 10546ft 100kts
11-Nov-17 19:12 39.897769 -111.181410 292 10546ft 100kts
11-Nov-17 19:13 39.910159 -111.213930 292 10546ft 100kts
11-Nov-17 19:14 39.922480 -111.246420 292 10546ft 100kts
11-Nov-17 19:15 39.934479 -111.278898 292 10573ft 99kts
11-Nov-17 19:16 39.946463 -111.311708 292 10573ft 101kts
11-Nov-17 19:17 39.958699 -111.345525 292 10501ft 105kts
11-Nov-17 19:18 39.970927 -111.379530 292 10499ft 102kts
11-Nov-17 19:19 39.982617 -111.412127 292 10499ft 102kts
11-Nov-17 19:20 39.994575 -111.445622 291 10499ft 102kts
11-Nov-17 19:21 40.006465 -111.479080 291 10499ft 101kts
11-Nov-17 19:22 40.024456 -111.505961 312 10365ft 98kts
11-Nov-17 19:23 40.043480 -111.531663 305 9962ft 99kts
11-Nov-17 19:24 40.060293 -111.560454 305 9543ft 100kts
11-Nov-17 19:25 40.079363 -111.588141 304 9096ft 102kts
11-Nov-17 19:26 40.095485 -111.619416 292 8619ft 103kts
11-Nov-17 19:27 40.109155 -111.652801 295 7923ft 108kts
11-Nov-17 19:28 40.123111 -111.687598 298 7284ft 108kts
11-Nov-17 19:29 40.140365 -111.719172 308 6628ft 107kts
11-Nov-17 19:30 40.164329 -111.736664 6 5720ft 101kts
11-Nov-17 19:31 40.187808 -111.731003 15 4950ft 75kts
11-Nov-17 19:32 40.208538 -111.725251 15 4543ft 75kts
11-Nov-17 19:33 40.219100 -111.721258 80 4501ft 9kts
11-Nov-17 19:34 40.219031 -111.719463 72 4501ft 0kts
11-Nov-17 19:35 40.219031 -111.719463 72 4501ft 0kts
11-Nov-17 19:36 40.218880 -111.719458 327 4501ft 1kts
11-Nov-17 19:37 40.218813 -111.719404 329 4501ft 0kts
11-Nov-17 19:38 40.218813 -111.719404 329 4501ft 0kts
11-Nov-17 19:39 40.218813 -111.719404 329 4501ft 0kts
11-Nov-17 19:40 40.218813 -111.719404 329 4501ft 0kts
11-Nov-17 19:41 40.218813 -111.719404 329 4501ft 0kts
11-Nov-17 19:42 40.218813 -111.719404 329 4501ft 0kts
11-Nov-17 19:43 40.218813 -111.719404 329 4501ft 0kts
11-Nov-17 19:44 40.218813 -111.719404 329 4501ft 0kts
11-Nov-17 19:45 40.218813 -111.719404 329 4501ft 0kts
11-Nov-17 19:46 40.218813 -111.719404 329 4501ft 0kts
11-Nov-17 19:47 40.218813 -111.719404 329 4501ft 0kts

Navigation Log

Ident Type
Flight plan parsing failed, navigation log unavailable